Observation data for Sundown on 08/19/2019      Previous  Date       Current Mesonet Observations  Soil Data  Daily Summary Page  Observations in Plain Language
KSDS 190500Z 14007KT 27/11 A2998 RMK A01 T02660114  RH  040%=      5-min Rain = 0
KSDS 190505Z 12008KT 26/12 A2998 RMK A01 T02620115  RH  041%=      5-min Rain = 0
KSDS 190510Z 10008KT 26/12 A2999 RMK A01 T02600115  RH  042%=      5-min Rain = 0
KSDS 190515Z 13007KT 26/12 A2999 RMK A01 T02600118  RH  043%=      5-min Rain = 0
KSDS 190520Z 15007KT 26/12 A2999 RMK A01 T02580119  RH  044%=      5-min Rain = 0
KSDS 190525Z 17007KT 26/12 A2999 RMK A01 T02550121  RH  045%=      5-min Rain = 0
KSDS 190530Z 17006KT 25/12 A2999 RMK A01 T02530121  RH  045%=      5-min Rain = 0
KSDS 190535Z 16007KT 25/12 A2999 RMK A01 T02510122  RH  046%=      5-min Rain = 0
KSDS 190540Z 16008KT 25/12 A2999 RMK A01 T02520122  RH  046%=      5-min Rain = 0
KSDS 190545Z 16008KT 25/12 A2999 RMK A01 T02540123  RH  046%=      5-min Rain = 0
KSDS 190550Z 15007KT 25/12 A2999 RMK A01 T02540124  RH  046%=      5-min Rain = 0
KSDS 190555Z 13007KT 25/13 A30 RMK A01 T02520126  RH  047%=      5-min Rain = 0
KSDS 190600Z 13007KT 25/13 A30 RMK A01 T02500127  RH  048%=      5-min Rain = 0
KSDS 190605Z 14008KT 25/13 A30 RMK A01 T02530128  RH  048%=      5-min Rain = 0
KSDS 190610Z 15009KT 26/13 A30 RMK A01 T02580129  RH  046%=      5-min Rain = 0
KSDS 190615Z 15008KT 26/13 A30 RMK A01 T02620128  RH  045%=      5-min Rain = 0
KSDS 190620Z 15008KT 26/13 A30 RMK A01 T02640127  RH  044%=      5-min Rain = 0
KSDS 190625Z 15009KT 26/13 A30 RMK A01 T02640126  RH  044%=      5-min Rain = 0
KSDS 190630Z 15008KT 27/13 A30 RMK A01 T02650126  RH  044%=      5-min Rain = 0
KSDS 190635Z 15008KT 26/13 A30 RMK A01 T02640125  RH  044%=      5-min Rain = 0
KSDS 190640Z 15008KT 27/13 A30 RMK A01 T02650125  RH  044%=      5-min Rain = 0
KSDS 190645Z 15007KT 26/13 A30 RMK A01 T02640125  RH  044%=      5-min Rain = 0
KSDS 190650Z 15008KT 26/13 A30 RMK A01 T02630126  RH  044%=      5-min Rain = 0
KSDS 190655Z 14008KT 26/13 A30 RMK A01 T02620126  RH  044%=      5-min Rain = 0
KSDS 190700Z 15008KT 26/13 A3001 RMK A01 T02620126  RH  045%=      5-min Rain = 0
KSDS 190705Z 14008KT 26/13 A3001 RMK A01 T02600126  RH  045%=      5-min Rain = 0
KSDS 190710Z 14007KT 26/13 A3001 RMK A01 T02580126  RH  046%=      5-min Rain = 0
KSDS 190715Z 14007KT 26/13 A3001 RMK A01 T02550126  RH  046%=      5-min Rain = 0
KSDS 190720Z 15007KT 25/13 A3001 RMK A01 T02540126  RH  047%=      5-min Rain = 0
KSDS 190725Z 15008KT 25/13 A3001 RMK A01 T02540126  RH  047%=      5-min Rain = 0
KSDS 190730Z 15009KT 26/13 A3001 RMK A01 T02560127  RH  046%=      5-min Rain = 0
KSDS 190735Z 14008KT 26/13 A30 RMK A01 T02560127  RH  046%=      5-min Rain = 0
KSDS 190740Z 15007KT 25/13 A30 RMK A01 T02530126  RH  047%=      5-min Rain = 0
KSDS 190745Z 16008KT 25/13 A30 RMK A01 T02490126  RH  048%=      5-min Rain = 0
KSDS 190750Z 16007KT 25/13 A30 RMK A01 T02470127  RH  049%=      5-min Rain = 0
KSDS 190755Z 16008KT 25/13 A30 RMK A01 T02450127  RH  050%=      5-min Rain = 0
KSDS 190800Z 17008KT 25/13 A30 RMK A01 T02460128  RH  050%=      5-min Rain = 0
KSDS 190805Z 17008KT 25/13 A30 RMK A01 T02480130  RH  050%=      5-min Rain = 0
KSDS 190810Z 16008KT 25/13 A30 RMK A01 T02490132  RH  050%=      5-min Rain = 0
KSDS 190815Z 16008KT 25/13 A30 RMK A01 T02480133  RH  051%=      5-min Rain = 0
KSDS 190820Z 16007KT 25/13 A30 RMK A01 T02480134  RH  051%=      5-min Rain = 0
KSDS 190825Z 17008KT 25/14 A30 RMK A01 T02490135  RH  051%=      5-min Rain = 0
KSDS 190830Z 17008KT 25/14 A30 RMK A01 T02510136  RH  051%=      5-min Rain = 0
KSDS 190835Z 17008KT 25/14 A30 RMK A01 T02520137  RH  051%=      5-min Rain = 0
KSDS 190840Z 17008KT 25/14 A30 RMK A01 T02520137  RH  051%=      5-min Rain = 0
KSDS 190845Z 18008KT 25/14 A30 RMK A01 T02520139  RH  051%=      5-min Rain = 0
KSDS 190850Z 18007KT 25/14 A30 RMK A01 T02520140  RH  052%=      5-min Rain = 0
KSDS 190855Z 18008KT 25/14 A30 RMK A01 T02520142  RH  052%=      5-min Rain = 0
KSDS 190900Z 19008KT 25/14 A30 RMK A01 T02530143  RH  053%=      5-min Rain = 0
KSDS 190905Z 19008KT 25/14 A30 RMK A01 T02520143  RH  053%=      5-min Rain = 0
KSDS 190910Z 19007KT 25/14 A30 RMK A01 T02510144  RH  054%=      5-min Rain = 0
KSDS 190915Z 18007KT 25/14 A30 RMK A01 T02490144  RH  055%=      5-min Rain = 0
KSDS 190920Z 17007KT 25/14 A3001 RMK A01 T02460144  RH  056%=      5-min Rain = 0
KSDS 190925Z 15007KT 24/15 A3001 RMK A01 T02420145  RH  057%=      5-min Rain = 0
KSDS 190930Z 15008KT 24/15 A3001 RMK A01 T02400145  RH  058%=      5-min Rain = 0
KSDS 190935Z 15007KT 24/15 A3001 RMK A01 T02380146  RH  059%=      5-min Rain = 0
KSDS 190940Z 16007KT 24/15 A3001 RMK A01 T02370146  RH  059%=      5-min Rain = 0
KSDS 190945Z 16007KT 24/15 A3001 RMK A01 T02350146  RH  060%=      5-min Rain = 0
KSDS 190950Z 15006KT 23/15 A3001 RMK A01 T02330147  RH  061%=      5-min Rain = 0
KSDS 190955Z 15007KT 23/15 A3001 RMK A01 T02300147  RH  062%=      5-min Rain = 0
KSDS 191000Z 16007KT 23/15 A3001 RMK A01 T02280147  RH  063%=      5-min Rain = 0
KSDS 191005Z 16007KT 23/15 A3001 RMK A01 T02270147  RH  063%=      5-min Rain = 0
KSDS 191010Z 16007KT 23/15 A3001 RMK A01 T02250147  RH  064%=      5-min Rain = 0
KSDS 191015Z 15007KT 22/15 A3001 RMK A01 T02230147  RH  065%=      5-min Rain = 0
KSDS 191020Z 14007KT 22/15 A3001 RMK A01 T02230148  RH  065%=      5-min Rain = 0
KSDS 191025Z 13007KT 22/15 A3002 RMK A01 T02240148  RH  065%=      5-min Rain = 0
KSDS 191030Z 14007KT 23/15 A3002 RMK A01 T02260148  RH  064%=      5-min Rain = 0
KSDS 191035Z 15007KT 23/15 A3001 RMK A01 T02280148  RH  063%=      5-min Rain = 0
KSDS 191040Z 15007KT 23/15 A3002 RMK A01 T02290149  RH  063%=      5-min Rain = 0
KSDS 191045Z 15006KT 23/15 A3002 RMK A01 T02310149  RH  063%=      5-min Rain = 0
KSDS 191050Z 15006KT 23/15 A3002 RMK A01 T02300149  RH  063%=      5-min Rain = 0
KSDS 191055Z 15006KT 23/15 A3002 RMK A01 T02290149  RH  063%=      5-min Rain = 0
KSDS 191100Z 15006KT 23/15 A3002 RMK A01 T02290149  RH  063%=      5-min Rain = 0
KSDS 191105Z 14006KT 23/15 A3002 RMK A01 T02290149  RH  063%=      5-min Rain = 0
KSDS 191110Z 12006KT 23/15 A3002 RMK A01 T02290149  RH  063%=      5-min Rain = 0
KSDS 191115Z 09006KT 23/15 A3003 RMK A01 T02280150  RH  064%=      5-min Rain = 0
KSDS 191120Z 09006KT 23/15 A3003 RMK A01 T02270150  RH  065%=      5-min Rain = 0
KSDS 191125Z 12004KT 23/15 A3003 RMK A01 T02270151  RH  065%=      5-min Rain = 0
KSDS 191130Z 16003KT 23/15 A3003 RMK A01 T02250150  RH  065%=      5-min Rain = 0
KSDS 191135Z 19004KT 22/15 A3004 RMK A01 T02230150  RH  066%=      5-min Rain = 0
KSDS 191140Z 19004KT 22/15 A3004 RMK A01 T02220151  RH  067%=      5-min Rain = 0
KSDS 191145Z 19005KT 22/15 A3004 RMK A01 T02220151  RH  067%=      5-min Rain = 0
KSDS 191150Z 18005KT 22/15 A3004 RMK A01 T02220151  RH  067%=      5-min Rain = 0
KSDS 191155Z 18004KT 22/15 A3004 RMK A01 T02210151  RH  068%=      5-min Rain = 0
KSDS 191200Z 17003KT 22/15 A3004 RMK A01 T02200151  RH  068%=      5-min Rain = 0
KSDS 191205Z 15003KT 22/15 A3005 RMK A01 T02200152  RH  068%=      5-min Rain = 0
KSDS 191210Z 15004KT 22/15 A3005 RMK A01 T02200152  RH  068%=      5-min Rain = 0
KSDS 191215Z 16005KT 22/15 A3005 RMK A01 T02200152  RH  068%=      5-min Rain = 0
KSDS 191220Z 17006KT 22/15 A3005 RMK A01 T02210152  RH  068%=      5-min Rain = 0
KSDS 191225Z 18006KT 22/15 A3005 RMK A01 T02210153  RH  068%=      5-min Rain = 0
KSDS 191230Z 17006KT 23/15 A3005 RMK A01 T02270154  RH  067%=      5-min Rain = 0
KSDS 191235Z 17006KT 23/16 A3005 RMK A01 T02310155  RH  065%=      5-min Rain = 0
KSDS 191240Z 16006KT 23/16 A3005 RMK A01 T02330156  RH  065%=      5-min Rain = 0
KSDS 191245Z 16006KT 24/16 A3005 RMK A01 T02380157  RH  063%=      5-min Rain = 0
KSDS 191250Z 16006KT 24/16 A3005 RMK A01 T02430158  RH  062%=      5-min Rain = 0
KSDS 191255Z 16006KT 25/16 A3006 RMK A01 T02480158  RH  060%=      5-min Rain = 0
KSDS 191300Z 17007KT 25/16 A3006 RMK A01 T02510157  RH  059%=      5-min Rain = 0
KSDS 191305Z 18008KT 26/16 A3005 RMK A01 T02560157  RH  057%=      5-min Rain = 0
KSDS 191310Z 18009KT 26/16 A3005 RMK A01 T02620156  RH  055%=      5-min Rain = 0
KSDS 191315Z 18009KT 26/16 A3005 RMK A01 T02640155  RH  053%=      5-min Rain = 0
KSDS 191320Z 18009KT 26/16 A3005 RMK A01 T02640155  RH  053%=      5-min Rain = 0
KSDS 191325Z 18009KT 26/16 A3005 RMK A01 T02640155  RH  053%=      5-min Rain = 0
KSDS 191330Z 18010KT 26/15 A3005 RMK A01 T02620154  RH  054%=      5-min Rain = 0
KSDS 191335Z 19009KT 26/15 A3005 RMK A01 T02610154  RH  054%=      5-min Rain = 0
KSDS 191340Z 18010KT 26/15 A3006 RMK A01 T02620154  RH  054%=      5-min Rain = 0
KSDS 191345Z 18009KT 26/15 A3006 RMK A01 T02630154  RH  054%=      5-min Rain = 0
KSDS 191350Z 19009KT 26/15 A3006 RMK A01 T02630154  RH  053%=      5-min Rain = 0
KSDS 191355Z 19010KT 26/15 A3006 RMK A01 T02640153  RH  053%=      5-min Rain = 0
KSDS 191400Z 19010KT 27/15 A3006 RMK A01 T02660153  RH  052%=      5-min Rain = 0
KSDS 191405Z 19011KT 27/15 A3006 RMK A01 T02660152  RH  052%=      5-min Rain = 0
KSDS 191410Z 19011KT 27/15 A3006 RMK A01 T02670152  RH  051%=      5-min Rain = 0
KSDS 191415Z 18011G16KT 27/15 A3006 RMK A01 T02700151  RH  051%=      5-min Rain = 0
KSDS 191420Z 18012KT 27/15 A3006 RMK A01 T02710151  RH  050%=      5-min Rain = 0
KSDS 191425Z 18011KT 27/15 A3006 RMK A01 T02740151  RH  049%=      5-min Rain = 0
KSDS 191430Z 19011KT 28/15 A3006 RMK A01 T02770151  RH  048%=      5-min Rain = 0
KSDS 191435Z 19011KT 28/15 A3006 RMK A01 T02820150  RH  047%=      5-min Rain = 0
KSDS 191440Z 18012KT 28/15 A3007 RMK A01 T02840150  RH  046%=      5-min Rain = 0
KSDS 191445Z 18012KT 29/15 A3007 RMK A01 T02850150  RH  046%=      5-min Rain = 0
KSDS 191450Z 18012KT 29/15 A3007 RMK A01 T02850150  RH  046%=      5-min Rain = 0
KSDS 191455Z 18011KT 29/15 A3007 RMK A01 T02860152  RH  046%=      5-min Rain = 0
KSDS 191500Z 18011KT 29/15 A3007 RMK A01 T02890152  RH  045%=      5-min Rain = 0
KSDS 191505Z 18012KT 29/15 A3007 RMK A01 T02870152  RH  046%=      5-min Rain = 0
KSDS 191510Z 18011KT 29/15 A3007 RMK A01 T02850153  RH  047%=      5-min Rain = 0
KSDS 191515Z 18010KT 29/16 A3008 RMK A01 T02860155  RH  047%=      5-min Rain = 0
KSDS 191520Z 18011KT 29/15 A3008 RMK A01 T02870154  RH  047%=      5-min Rain = 0
KSDS 191525Z 17010KT 29/16 A3008 RMK A01 T02870155  RH  047%=      5-min Rain = 0
KSDS 191530Z 17012KT 29/16 A3008 RMK A01 T02870155  RH  047%=      5-min Rain = 0
KSDS 191535Z 17011KT 29/16 A3008 RMK A01 T02870156  RH  047%=      5-min Rain = 0
KSDS 191540Z 16011KT 29/16 A3008 RMK A01 T02870156  RH  047%=      5-min Rain = 0
KSDS 191545Z 16010KT 29/16 A3008 RMK A01 T02900158  RH  047%=      5-min Rain = 0
KSDS 191550Z 15010KT 29/16 A3008 RMK A01 T02880159  RH  048%=      5-min Rain = 0
KSDS 191555Z 16011KT 29/16 A3008 RMK A01 T02900159  RH  047%=      5-min Rain = 0
KSDS 191600Z 16009KT 29/16 A3008 RMK A01 T02900163  RH  048%=      5-min Rain = 0
KSDS 191605Z 16011KT 29/16 A3008 RMK A01 T02880158  RH  048%=      5-min Rain = 0
KSDS 191610Z 17009KT 29/16 A3009 RMK A01 T02880159  RH  048%=      5-min Rain = 0
KSDS 191615Z 16011KT 29/16 A3009 RMK A01 T02880158  RH  047%=      5-min Rain = 0
KSDS 191620Z 17011KT 29/16 A3009 RMK A01 T02880158  RH  047%=      5-min Rain = 0
KSDS 191625Z 17010KT 29/16 A3009 RMK A01 T02900159  RH  047%=      5-min Rain = 0
KSDS 191630Z 17010KT 29/16 A3009 RMK A01 T02910159  RH  047%=      5-min Rain = 0
KSDS 191635Z 17009KT 29/16 A3009 RMK A01 T02910160  RH  047%=      5-min Rain = 0
KSDS 191640Z 18009KT 29/16 A3009 RMK A01 T02930160  RH  047%=      5-min Rain = 0
KSDS 191645Z 18009KT 29/16 A3009 RMK A01 T02940160  RH  047%=      5-min Rain = 0
KSDS 191650Z 17009KT 30/16 A3009 RMK A01 T02950160  RH  046%=      5-min Rain = 0
KSDS 191655Z 17008KT 30/16 A3009 RMK A01 T02960161  RH  046%=      5-min Rain = 0
KSDS 191700Z 16008KT 30/16 A3009 RMK A01 T02980162  RH  046%=      5-min Rain = 0
KSDS 191705Z 16007KT 30/16 A3009 RMK A01 T03000162  RH  046%=      5-min Rain = 0
KSDS 191710Z 15009KT 30/16 A3009 RMK A01 T03010161  RH  045%=      5-min Rain = 0
KSDS 191715Z 14008KT 30/16 A3009 RMK A01 T03020161  RH  045%=      5-min Rain = 0
KSDS 191720Z 14009KT 30/16 A301 RMK A01 T03020161  RH  045%=      5-min Rain = 0
KSDS 191725Z 15008KT 30/16 A301 RMK A01 T03040161  RH  044%=      5-min Rain = 0
KSDS 191730Z 15008KT 31/16 A3009 RMK A01 T03060160  RH  043%=      5-min Rain = 0
KSDS 191735Z 15007KT 31/16 A301 RMK A01 T03070161  RH  043%=      5-min Rain = 0
KSDS 191740Z 15009KT 31/16 A301 RMK A01 T03090160  RH  043%=      5-min Rain = 0
KSDS 191745Z 15008KT 31/16 A301 RMK A01 T03100162  RH  043%=      5-min Rain = 0
KSDS 191750Z 16009KT 31/16 A301 RMK A01 T03100163  RH  043%=      5-min Rain = 0
KSDS 191755Z 15009KT 31/16 A301 RMK A01 T03100163  RH  043%=      5-min Rain = 0
KSDS 191800Z 16009KT 31/16 A3009 RMK A01 T03110163  RH  043%=      5-min Rain = 0
KSDS 191805Z 15008KT 31/16 A3009 RMK A01 T03140163  RH  042%=      5-min Rain = 0
KSDS 191810Z 16008KT 32/16 A3009 RMK A01 T03160162  RH  041%=      5-min Rain = 0
KSDS 191815Z 16009KT 32/16 A3009 RMK A01 T03160159  RH  041%=      5-min Rain = 0
KSDS 191820Z 15009KT 32/16 A3009 RMK A01 T03180156  RH  040%=      5-min Rain = 0
KSDS 191825Z 15008KT 32/16 A3009 RMK A01 T03180156  RH  039%=      5-min Rain = 0
KSDS 191830Z 14008KT 32/16 A3009 RMK A01 T03180158  RH  040%=      5-min Rain = 0
KSDS 191835Z 15009KT 32/15 A3009 RMK A01 T03210151  RH  037%=      5-min Rain = 0
KSDS 191840Z 14010KT 32/15 A3009 RMK A01 T03220152  RH  037%=      5-min Rain = 0
KSDS 191845Z 14009G14KT 32/16 A3009 RMK A01 T03240157  RH  038%=      5-min Rain = 0
KSDS 191850Z 14009KT 33/16 A3009 RMK A01 T03260155  RH  038%=      5-min Rain = 0
KSDS 191855Z 14011KT 33/15 A3008 RMK A01 T03280153  RH  036%=      5-min Rain = 0
KSDS 191900Z 13010G15KT 33/16 A3008 RMK A01 T03290155  RH  037%=      5-min Rain = 0
KSDS 191905Z 14010KT 33/15 A3008 RMK A01 T03320151  RH  035%=      5-min Rain = 0
KSDS 191910Z 13011G16KT 34/15 A3008 RMK A01 T03380151  RH  034%=      5-min Rain = 0
KSDS 191915Z 14009G15KT 34/15 A3008 RMK A01 T03400148  RH  033%=      5-min Rain = 0
KSDS 191920Z 14010G15KT 35/15 A3007 RMK A01 T03530145  RH  030%=      5-min Rain = 0
KSDS 191925Z 13011KT 36/14 A3007 RMK A01 T03590136  RH  027%=      5-min Rain = 0
KSDS 191930Z 14010G15KT 36/14 A3007 RMK A01 T03640135  RH  027%=      5-min Rain = 0
KSDS 191935Z 13010G15KT 36/13 A3007 RMK A01 T03560133  RH  027%=      5-min Rain = 0
KSDS 191940Z 13011G16KT 35/13 A3007 RMK A01 T03510131  RH  028%=      5-min Rain = 0
KSDS 191945Z 14007G15KT 36/13 A3007 RMK A01 T03570129  RH  027%=      5-min Rain = 0
KSDS 191950Z 14011G17KT 37/12 A3006 RMK A01 T03680124  RH  024%=      5-min Rain = 0
KSDS 191955Z 13010G16KT 38/12 A3006 RMK A01 T03770117  RH  022%=      5-min Rain = 0
KSDS 192000Z 14010G17KT 38/11 A3006 RMK A01 T03770113  RH  021%=      5-min Rain = 0
KSDS 192005Z 13011KT 37/11 A3006 RMK A01 T03680113  RH  022%=      5-min Rain = 0
KSDS 192010Z 14011G18KT 36/11 A3006 RMK A01 T03640105  RH  022%=      5-min Rain = 0
KSDS 192015Z 14012G18KT 36/11 A3006 RMK A01 T03640105  RH  022%=      5-min Rain = 0
KSDS 192020Z 15011G18KT 37/10 A3005 RMK A01 T03710104  RH  021%=      5-min Rain = 0
KSDS 192025Z 14012G18KT 37/11 A3005 RMK A01 T03710114  RH  022%=      5-min Rain = 0
KSDS 192030Z 14009G15KT 37/11 A3005 RMK A01 T03680110  RH  022%=      5-min Rain = 0
KSDS 192035Z 14010G18KT 38/11 A3005 RMK A01 T03770114  RH  021%=      5-min Rain = 0
KSDS 192040Z 14010G17KT 38/11 A3005 RMK A01 T03800112  RH  021%=      5-min Rain = 0
KSDS 192045Z 16009G14KT 38/11 A3004 RMK A01 T03760105  RH  020%=      5-min Rain = 0
KSDS 192050Z 15010G15KT 38/10 A3004 RMK A01 T03790099  RH  019%=      5-min Rain = 0
KSDS 192055Z 15009G14KT 38/09 A3004 RMK A01 T03820094  RH  018%=      5-min Rain = 0
KSDS 192100Z 14009G15KT 38/10 A3004 RMK A01 T03810102  RH  019%=      5-min Rain = 0
KSDS 192105Z 13012KT 38/09 A3003 RMK A01 T03830092  RH  018%=      5-min Rain = 0
KSDS 192110Z 14013G18KT 38/09 A3003 RMK A01 T03830087  RH  017%=      5-min Rain = 0
KSDS 192115Z 15009G16KT 38/09 A3003 RMK A01 T03840089  RH  017%=      5-min Rain = 0
KSDS 192120Z 16014G21KT 38/09 A3003 RMK A01 T03820086  RH  017%=      5-min Rain = 0
KSDS 192125Z 16012G18KT 38/08 A3003 RMK A01 T03810077  RH  016%=      5-min Rain = 0
KSDS 192130Z 17010G15KT 38/07 A3002 RMK A01 T03810072  RH  016%=      5-min Rain = 0
KSDS 192135Z 13013G19KT 38/07 A3002 RMK A01 T03820074  RH  016%=      5-min Rain = 0
KSDS 192140Z 14012G20KT 38/07 A3002 RMK A01 T03830072  RH  015%=      5-min Rain = 0
KSDS 192145Z 14014G20KT 38/06 A3002 RMK A01 T03820064  RH  015%=      5-min Rain = 0
KSDS 192150Z 15014G19KT 38/06 A3002 RMK A01 T03830060  RH  014%=      5-min Rain = 0
KSDS 192155Z 16013G21KT 39/07 A3002 RMK A01 T03860065  RH  014%=      5-min Rain = 0
KSDS 192200Z 16014G23KT 39/06 A3002 RMK A01 T03860057  RH  014%=      5-min Rain = 0
KSDS 192205Z 14014G19KT 38/07 A3002 RMK A01 T03840066  RH  015%=      5-min Rain = 0
KSDS 192210Z 14018G23KT 39/06 A3002 RMK A01 T03850056  RH  014%=      5-min Rain = 0
KSDS 192215Z 14016G28KT 39/06 A3002 RMK A01 T03850059  RH  014%=      5-min Rain = 0
KSDS 192220Z 15014G20KT 39/06 A3002 RMK A01 T03870059  RH  014%=      5-min Rain = 0
KSDS 192225Z 16013G18KT 39/06 A3002 RMK A01 T03870057  RH  014%=      5-min Rain = 0
KSDS 192230Z 18014G19KT 38/06 A3002 RMK A01 T03820064  RH  015%=      5-min Rain = 0
KSDS 192235Z 14011G17KT 38/06 A3002 RMK A01 T03820062  RH  015%=      5-min Rain = 0
KSDS 192240Z 16013G18KT 38/07 A3002 RMK A01 T03750066  RH  016%=      5-min Rain = 0
KSDS 192245Z 17012G18KT 37/07 A3002 RMK A01 T03650071  RH  017%=      5-min Rain = 0
KSDS 192250Z 16013G19KT 36/07 A3002 RMK A01 T03620070  RH  017%=      5-min Rain = 0
KSDS 192255Z 17011KT 36/07 A3002 RMK A01 T03600071  RH  017%=      5-min Rain = 0
KSDS 192300Z 16012KT 36/07 A3002 RMK A01 T03590071  RH  017%=      5-min Rain = 0
KSDS 192305Z 17012KT 36/08 A3003 RMK A01 T03580080  RH  019%=      5-min Rain = 0
KSDS 192310Z 17010KT 36/08 A3002 RMK A01 T03560083  RH  019%=      5-min Rain = 0
KSDS 192315Z 17011KT 36/08 A3002 RMK A01 T03560084  RH  020%=      5-min Rain = 0
KSDS 192320Z 17010KT 36/09 A3002 RMK A01 T03550087  RH  020%=      5-min Rain = 0
KSDS 192325Z 17012KT 36/09 A3002 RMK A01 T03550087  RH  020%=      5-min Rain = 0
KSDS 192330Z 17011KT 36/09 A3002 RMK A01 T03550085  RH  020%=      5-min Rain = 0
KSDS 192335Z 17010KT 35/09 A3002 RMK A01 T03540090  RH  020%=      5-min Rain = 0
KSDS 192340Z 17010KT 35/10 A3002 RMK A01 T03540095  RH  021%=      5-min Rain = 0
KSDS 192345Z 16009KT 35/10 A3002 RMK A01 T03540096  RH  021%=      5-min Rain = 0
KSDS 192350Z 16009KT 36/10 A3002 RMK A01 T03550098  RH  022%=      5-min Rain = 0
KSDS 192355Z 17009KT 36/10 A3002 RMK A01 T03550098  RH  022%=      5-min Rain = 0
KSDS 200000Z 15010KT 36/10 A3002 RMK A01 T03580098  RH  021%=      5-min Rain = 0
KSDS 200005Z 14009G14KT 36/10 A3002 RMK A01 T03600097  RH  021%=      5-min Rain = 0
KSDS 200010Z 14009KT 36/10 A3002 RMK A01 T03590096  RH  021%=      5-min Rain = 0
KSDS 200015Z 14010KT 36/09 A3002 RMK A01 T03560094  RH  021%=      5-min Rain = 0
KSDS 200020Z 14010KT 36/09 A3002 RMK A01 T03550093  RH  021%=      5-min Rain = 0
KSDS 200025Z 15008G13KT 36/09 A3002 RMK A01 T03550094  RH  021%=      5-min Rain = 0
KSDS 200030Z 13009KT 35/10 A3002 RMK A01 T03520096  RH  022%=      5-min Rain = 0
KSDS 200035Z 13010KT 35/10 A3002 RMK A01 T03490098  RH  022%=      5-min Rain = 0
KSDS 200040Z 13011G16KT 35/10 A3002 RMK A01 T03470097  RH  022%=      5-min Rain = 0
KSDS 200045Z 13011KT 35/10 A3003 RMK A01 T03450099  RH  023%=      5-min Rain = 0
KSDS 200050Z 13011KT 34/10 A3003 RMK A01 T03430101  RH  023%=      5-min Rain = 0
KSDS 200055Z 13010KT 34/11 A3003 RMK A01 T03410106  RH  025%=      5-min Rain = 0
KSDS 200100Z 13010KT 34/11 A3003 RMK A01 T03380112  RH  026%=      5-min Rain = 0
KSDS 200105Z 13010KT 34/11 A3003 RMK A01 T03350114  RH  027%=      5-min Rain = 0
KSDS 200110Z 13010KT 33/12 A3003 RMK A01 T03320115  RH  028%=      5-min Rain = 0
KSDS 200115Z 13009KT 33/12 A3003 RMK A01 T03290116  RH  028%=      5-min Rain = 0
KSDS 200120Z 13010KT 33/12 A3003 RMK A01 T03270116  RH  029%=      5-min Rain = 0
KSDS 200125Z 13010KT 33/12 A3003 RMK A01 T03260117  RH  029%=      5-min Rain = 0
KSDS 200130Z 13009KT 32/12 A3003 RMK A01 T03230118  RH  030%=      5-min Rain = 0
KSDS 200135Z 13009KT 32/12 A3003 RMK A01 T03200119  RH  030%=      5-min Rain = 0
KSDS 200140Z 13010KT 32/12 A3003 RMK A01 T03180119  RH  031%=      5-min Rain = 0
KSDS 200145Z 13010KT 32/12 A3003 RMK A01 T03170119  RH  031%=      5-min Rain = 0
KSDS 200150Z 13010KT 32/12 A3004 RMK A01 T03160119  RH  031%=      5-min Rain = 0
KSDS 200155Z 13010KT 31/12 A3004 RMK A01 T03140119  RH  032%=      5-min Rain = 0
KSDS 200200Z 13009KT 31/12 A3004 RMK A01 T03110120  RH  032%=      5-min Rain = 0
KSDS 200205Z 13009KT 31/12 A3004 RMK A01 T03090120  RH  033%=      5-min Rain = 0
KSDS 200210Z 14009KT 31/12 A3004 RMK A01 T03080120  RH  033%=      5-min Rain = 0
KSDS 200215Z 14009KT 31/12 A3004 RMK A01 T03070121  RH  033%=      5-min Rain = 0
KSDS 200220Z 14008KT 30/12 A3004 RMK A01 T03040122  RH  034%=      5-min Rain = 0
KSDS 200225Z 14008KT 30/12 A3005 RMK A01 T03020122  RH  034%=      5-min Rain = 0
KSDS 200230Z 14008KT 30/12 A3005 RMK A01 T03000123  RH  035%=      5-min Rain = 0
KSDS 200235Z 14008KT 30/12 A3005 RMK A01 T02980123  RH  035%=      5-min Rain = 0
KSDS 200240Z 14007KT 30/12 A3005 RMK A01 T02960123  RH  036%=      5-min Rain = 0
KSDS 200245Z 15008KT 29/12 A3005 RMK A01 T02940124  RH  036%=      5-min Rain = 0
KSDS 200250Z 15007KT 29/13 A3006 RMK A01 T02930125  RH  037%=      5-min Rain = 0
KSDS 200255Z 15007KT 29/13 A3006 RMK A01 T02910126  RH  037%=      5-min Rain = 0
KSDS 200300Z 15007KT 29/13 A3006 RMK A01 T02890126  RH  038%=      5-min Rain = 0
KSDS 200305Z 15007KT 29/13 A3006 RMK A01 T02880126  RH  038%=      5-min Rain = 0
KSDS 200310Z 15006KT 29/13 A3007 RMK A01 T02870126  RH  039%=      5-min Rain = 0
KSDS 200315Z 15006KT 29/13 A3007 RMK A01 T02860126  RH  039%=      5-min Rain = 0
KSDS 200320Z 15006KT 29/13 A3007 RMK A01 T02860126  RH  039%=      5-min Rain = 0
KSDS 200325Z 15007KT 29/13 A3007 RMK A01 T02860125  RH  039%=      5-min Rain = 0
KSDS 200330Z 15006KT 29/13 A3007 RMK A01 T02860125  RH  039%=      5-min Rain = 0
KSDS 200335Z 15007KT 29/13 A3007 RMK A01 T02860125  RH  038%=      5-min Rain = 0
KSDS 200340Z 15007KT 29/13 A3008 RMK A01 T02870125  RH  038%=      5-min Rain = 0
KSDS 200345Z 15008KT 29/13 A3008 RMK A01 T02880125  RH  038%=      5-min Rain = 0
KSDS 200350Z 15009KT 29/12 A3008 RMK A01 T02900124  RH  037%=      5-min Rain = 0
KSDS 200355Z 15008KT 29/12 A3008 RMK A01 T02910124  RH  037%=      5-min Rain = 0
KSDS 200400Z 15008KT 29/12 A3008 RMK A01 T02900123  RH  037%=      5-min Rain = 0
KSDS 200405Z 15009KT 29/12 A3008 RMK A01 T02900123  RH  037%=      5-min Rain = 0
KSDS 200410Z 15009KT 29/12 A3008 RMK A01 T02910122  RH  037%=      5-min Rain = 0
KSDS 200415Z 15009KT 29/12 A3008 RMK A01 T02910122  RH  036%=      5-min Rain = 0
KSDS 200420Z 15009KT 29/12 A3009 RMK A01 T02910121  RH  036%=      5-min Rain = 0
KSDS 200425Z 16009KT 29/12 A3009 RMK A01 T02920120  RH  036%=      5-min Rain = 0
KSDS 200430Z 15009KT 29/12 A3009 RMK A01 T02920120  RH  036%=      5-min Rain = 0
KSDS 200435Z 15008KT 29/12 A3009 RMK A01 T02910120  RH  036%=      5-min Rain = 0
KSDS 200440Z 15008KT 29/12 A3009 RMK A01 T02890120  RH  036%=      5-min Rain = 0
KSDS 200445Z 15008KT 29/12 A3009 RMK A01 T02880120  RH  037%=      5-min Rain = 0
KSDS 200450Z 14009KT 29/12 A3009 RMK A01 T02870120  RH  037%=      5-min Rain = 0
KSDS 200455Z 14008KT 29/12 A3009 RMK A01 T02860120  RH  037%=      5-min Rain = 0

Page generated in 0.0159 seconds.